Data for 03/11/2008

Time Sea-Level Adjusted Pressure Absolute Pressure Temperature Relative Humidity Dew Point   
(mb) (inHg) (mb) (inHg) (C) (F) (%) (C) (F)
00:05 1021 30.15 851 25.13 3.7 38.7 56 -4.2 24.4
00:10 1021 30.15 851 25.13 4.1 39.3 56 -4 24.8
00:15 1021 30.15 851 25.13 4.2 39.6 55 -4 24.7
00:20 1021 30.15 851 25.13 4.2 39.6 55 -4.1 24.6
00:25 1021 30.15 850 25.1 4.3 39.7 54 -4.2 24.5
00:30 1021 30.15 850 25.1 4.4 39.9 54 -4.2 24.5
00:35 1021 30.15 850 25.1 4.5 40.1 54 -4.1 24.6
00:40 1021 30.15 850 25.1 4.2 39.6 54 -4.2 24.5
00:45 1021 30.15 850 25.1 3.9 39 56 -4.2 24.5
00:50 1021 30.15 850 25.1 3.7 38.7 56 -4.3 24.3
00:55 1021 30.15 850 25.1 3.5 38.3 57 -4.2 24.5
01:00 1021 30.15 850 25.1 3.2 37.7 59 -4.2 24.5
01:05 1021 30.15 850 25.1 3 37.4 59 -4.3 24.2
01:10 1021 30.15 850 25.1 3.1 37.6 59 -4.2 24.4
01:15 1021 30.15 850 25.1 3.1 37.6 59 -4.2 24.5
01:20 1021 30.15 850 25.1 3.3 37.9 58 -4.2 24.4
01:25 1021 30.15 850 25.1 3.7 38.6 56 -4.2 24.5
01:30 1021 30.15 850 25.1 3.7 38.6 57 -4.1 24.6
01:35 1021 30.15 850 25.1 3.5 38.4 57 -4.1 24.6
01:40 1021 30.15 850 25.1 3.4 38.1 58 -4.1 24.6
01:45 1021 30.15 850 25.1 3.2 37.8 58 -4.2 24.5
01:50 1021 30.15 850 25.1 3 37.4 59 -4.1 24.6
01:55 1021 30.15 850 25.1 2.6 36.7 61 -4.2 24.5
02:00 1021 30.15 850 25.1 2.5 36.6 61 -4.2 24.4
02:05 1021 30.15 850 25.1 2.8 37 60 -4.2 24.4
02:10 1021 30.15 850 25.1 3.1 37.6 59 -4.2 24.4
02:15 1021 30.15 850 25.1 3 37.5 59 -4.2 24.4
02:20 1021 30.15 850 25.1 2.9 37.3 59 -4.2 24.4
02:25 1021 30.15 850 25.1 2.7 36.9 61 -4 24.8
02:30 1021 30.15 850 25.1 2.9 37.2 60 -4.2 24.5
02:35 1021 30.15 850 25.1 3.2 37.8 61 -3.7 25.4
02:40 1021 30.15 850 25.1 2.7 36.9 63 -3.7 25.4
02:45 1021 30.15 850 25.1 2.6 36.8 62 -3.9 24.9
02:50 1021 30.15 850 25.1 2.4 36.3 63 -3.9 24.9
02:55 1021 30.15 850 25.1 2.3 36.2 64 -3.9 25
03:00 1021 30.15 850 25.1 2.3 36.2 64 -3.9 25
03:05 1021 30.15 850 25.1 2.3 36.1 64 -3.8 25.2
03:10 1021 30.15 850 25.1 2 35.6 65 -3.8 25.1
03:15 1021 30.15 850 25.1 2.1 35.8 64 -4.1 24.7
03:20 1021 30.15 850 25.1 2.8 37 61 -4 24.8
03:25 1021 30.15 850 25.1 3 37.4 60 -3.9 24.9
03:30 1021 30.15 850 25.1 2.8 37 61 -4 24.7
03:35 1021 30.15 850 25.1 2.3 36.2 62 -4.2 24.5
03:40 1021 30.15 850 25.1 1.9 35.4 64 -4.3 24.3
03:45 1021 30.15 850 25.1 2.1 35.7 63 -4.3 24.2
03:50 1021 30.15 850 25.1 2.2 35.9 63 -4.1 24.6
03:55 1020 30.12 850 25.1 1.9 35.4 64 -4.3 24.3
04:00 1020 30.12 850 25.1 1.9 35.4 63 -4.4 24.1
04:05 1020 30.12 850 25.1 2.1 35.8 62 -4.4 24.2
04:10 1020 30.12 849 25.07 2.1 35.9 62 -4.4 24.1
04:15 1020 30.12 849 25.07 2 35.5 62 -4.6 23.8
04:20 1020 30.12 849 25.07 2.2 35.9 61 -4.6 23.7
04:25 1020 30.12 849 25.07 2.4 36.4 60 -4.6 23.7
04:30 1020 30.12 849 25.07 2.7 36.8 59 -4.5 23.8
04:35 1020 30.12 849 25.07 2.4 36.3 60 -4.5 23.9
04:40 1020 30.12 849 25.07 2.3 36.2 60 -4.7 23.6
04:45 1020 30.12 849 25.07 2.5 36.5 60 -4.6 23.8
04:50 1020 30.12 849 25.07 2.3 36.2 60 -4.6 23.8
04:55 1020 30.12 849 25.07 2.2 36 61 -4.6 23.7
05:00 1020 30.12 849 25.07 2.2 35.9 61 -4.6 23.7
05:05 1020 30.12 849 25.07 2.2 35.9 61 -4.6 23.8
05:10 1020 30.12 849 25.07 2.2 36 60 -4.7 23.5
05:15 1020 30.12 849 25.07 2.5 36.5 59 -4.6 23.6
05:20 1020 30.12 849 25.07 2.5 36.6 59 -4.6 23.7
05:25 1020 30.12 849 25.07 2.5 36.4 60 -4.6 23.7
05:30 1020 30.12 849 25.07 2.4 36.4 60 -4.6 23.7
05:35 1020 30.12 849 25.07 2.5 36.5 60 -4.6 23.8
05:40 1020 30.12 849 25.07 2.6 36.7 59 -4.5 23.9
05:45 1020 30.12 849 25.07 2.7 36.9 59 -4.5 23.9
05:50 1020 30.12 849 25.07 2.7 36.9 59 -4.6 23.8
05:55 1020 30.12 849 25.07 2.6 36.8 59 -4.7 23.6
06:00 1020 30.12 849 25.07 2.7 36.9 58 -4.7 23.5
06:05 1020 30.12 849 25.07 2.7 36.9 59 -4.6 23.7
06:10 1020 30.12 849 25.07 2.6 36.7 58 -4.7 23.5
06:15 1020 30.12 849 25.07 2.8 37 58 -4.7 23.6
06:20 1020 30.12 849 25.07 2.9 37.2 58 -4.6 23.6
06:25 1020 30.12 849 25.07 3 37.3 56 -4.9 23.3
06:30 1020 30.12 849 25.07 3.3 37.9 56 -4.7 23.5
06:35 1020 30.12 849 25.07 3.3 38 56 -4.6 23.6
06:40 1020 30.12 849 25.07 3.2 37.8 57 -4.6 23.7
06:45 1020 30.12 849 25.07 3 37.4 58 -4.5 23.9
06:50 1020 30.12 849 25.07 2.8 37.1 58 -4.5 23.8
06:55 1020 30.12 849 25.07 2.8 37 59 -4.5 23.9
07:00 1020 30.12 849 25.07 2.9 37.2 58 -4.5 23.9
07:05 1020 30.12 849 25.07 3 37.4 58 -4.4 24
07:10 1020 30.12 849 25.07 3.1 37.5 57 -4.6 23.8
07:15 1020 30.12 849 25.07 3.2 37.8 57 -4.5 23.8
07:20 1020 30.12 849 25.07 3.2 37.7 57 -4.6 23.8
07:25 1020 30.12 849 25.07 3.2 37.8 56 -4.7 23.5
07:30 1020 30.12 849 25.07 3.4 38.1 55 -4.8 23.4
07:35 1020 30.12 849 25.07 3.5 38.2 55 -4.8 23.4
07:40 1020 30.12 849 25.07 3.5 38.3 54 -4.9 23.2
07:45 1020 30.12 849 25.07 3.5 38.3 55 -4.7 23.5
07:50 1020 30.12 849 25.07 3.3 37.9 56 -4.6 23.6
07:55 1020 30.12 849 25.07 3.1 37.6 56 -4.7 23.5
08:00 1019 30.09 849 25.07 3 37.5 57 -4.8 23.4
08:05 1019 30.09 849 25.07 3.2 37.7 56 -4.8 23.4
08:10 1019 30.09 849 25.07 3.2 37.8 56 -4.7 23.5
08:15 1019 30.09 849 25.07 3.2 37.7 57 -4.6 23.8
08:20 1019 30.09 849 25.07 2.9 37.2 59 -4.4 24.1
08:25 1019 30.09 849 25.07 2.4 36.3 61 -4.3 24.2
08:30 1019 30.09 849 25.07 2.3 36.1 63 -4.1 24.7
08:35 1020 30.12 849 25.07 2.8 37 61 -3.9 25
08:40 1020 30.12 849 25.07 3.2 37.8 60 -3.7 25.3
08:45 1020 30.12 849 25.07 3.3 38 59 -4 24.8
08:50 1020 30.12 849 25.07 3.4 38.2 58 -4.1 24.6
08:55 1020 30.12 849 25.07 3.5 38.4 58 -4 24.9
09:00 1020 30.12 849 25.07 3.4 38.2 59 -3.7 25.3
09:05 1020 30.12 849 25.07 3.3 37.9 61 -3.4 25.8
09:10 1019 30.09 849 25.07 3.4 38.1 61 -3.4 26
09:15 1019 30.09 848 25.04 3.5 38.3 62 -3.1 26.4
09:20 1019 30.09 848 25.04 3.2 37.8 63 -3 26.5
09:25 1019 30.09 848 25.04 3.3 37.9 63 -3.1 26.4
09:30 1019 30.09 848 25.04 3.7 38.7 61 -3.2 26.2
09:35 1019 30.09 848 25.04 4 39.2 60 -3 26.6
09:40 1019 30.09 848 25.04 4.2 39.6 59 -3.1 26.4
09:45 1019 30.09 848 25.04 4.5 40.1 57 -3.2 26.3
09:50 1019 30.09 848 25.04 4.9 40.8 57 -3 26.6
09:55 1019 30.09 848 25.04 5.8 42.4 52 -3.3 26.1
10:00 1019 30.09 848 25.04 5.8 42.5 51 -3.4 25.9
10:05 1019 30.09 848 25.04 6 42.9 50 -3.6 25.5
10:10 1019 30.09 848 25.04 6.2 43.2 49 -3.7 25.4
10:15 1019 30.09 848 25.04 6.3 43.3 49 -3.7 25.3
10:20 1019 30.09 848 25.04 6.2 43.2 49 -3.8 25.1
10:25 1019 30.09 848 25.04 6.3 43.4 48 -3.8 25.1
10:30 1019 30.09 848 25.04 6.1 42.9 49 -3.9 24.9
10:35 1019 30.09 848 25.04 6 42.7 48 -4.2 24.5
10:40 1019 30.09 848 25.04 6.2 43.2 48 -4 24.7
10:45 1019 30.09 848 25.04 6.5 43.7 47 -4 24.8
10:50 1019 30.09 848 25.04 6.9 44.4 46 -3.9 25.1
10:55 1019 30.09 848 25.04 7.4 45.4 45 -3.8 25.2
11:00 1019 30.09 848 25.04 7.7 45.9 43 -3.9 24.9
11:05 1019 30.09 848 25.04 7.5 45.5 44 -4 24.8
11:10 1019 30.09 848 25.04 7.7 45.8 44 -3.8 25.2
11:15 1019 30.09 848 25.04 8 46.4 42 -4 24.8
11:20 1019 30.09 848 25.04 7.6 45.7 44 -3.9 25.1
11:25 1019 30.09 848 25.04 7.4 45.4 46 -3.5 25.7
11:30 1019 30.09 848 25.04 7.4 45.4 47 -3.2 26.2
11:35 1019 30.09 848 25.04 7.5 45.4 46 -3.5 25.6
11:40 1019 30.09 848 25.04 7.2 45 47 -3.2 26.3
11:45 1019 30.09 848 25.04 7 44.6 48 -3.1 26.4
11:50 1019 30.09 848 25.04 6.7 44.1 50 -2.9 26.8
11:55 1019 30.09 848 25.04 6.4 43.4 52 -2.7 27.2
12:00 1019 30.09 848 25.04 6.2 43.1 53 -2.8 27
12:05 1019 30.09 848 25.04 6.1 42.9 53 -2.8 27
12:10 1019 30.09 848 25.04 6.2 43.1 53 -2.8 27
12:15 1019 30.09 848 25.04 6.3 43.4 52 -2.8 26.9
12:20 1019 30.09 848 25.04 6.5 43.7 52 -2.6 27.3
12:25 1019 30.09 848 25.04 6.7 44 50 -2.9 26.8
12:30 1019 30.09 848 25.04 7.1 44.7 48 -3.1 26.5
12:35 1019 30.09 848 25.04 7.2 45 48 -3 26.7
12:40 1018 30.06 848 25.04 7.8 46.1 47 -2.7 27.1
12:45 1018 30.06 848 25.04 8.2 46.8 46 -2.7 27.1
12:50 1018 30.06 848 25.04 9 48.3 44 -2.7 27.2
12:55 1018 30.06 848 25.04 10.3 50.5 41 -2.4 27.7
13:00 1018 30.06 848 25.04 11.2 52.1 38 -2.7 27.2
13:05 1018 30.06 847 25.01 10.9 51.6 38 -2.7 27.2
13:10 1018 30.06 847 25.01 10.1 50.1 41 -2.5 27.5
13:15 1018 30.06 847 25.01 10 50 41 -2.8 27
13:20 1018 30.06 847 25.01 10.6 51.2 39 -2.7 27.2
13:25 1018 30.06 847 25.01 11.4 52.6 38 -2.4 27.7
13:30 1018 30.06 847 25.01 11.6 52.9 38 -2.2 28.1
13:35 1018 30.06 847 25.01 11.3 52.4 37 -2.8 27
13:40 1018 30.06 847 25.01 11.4 52.5 38 -2.5 27.6
13:45 1017 30.03 847 25.01 11.4 52.6 37 -2.7 27.1
13:50 1017 30.03 847 25.01 12.2 54 35 -2.7 27.2
13:55 1017 30.03 846 24.98 12.2 54 34 -3.2 26.2
14:00 1017 30.03 846 24.98 12.2 53.9 34 -3.3 26
14:05 1017 30.03 846 24.98 12.3 54.1 34 -3.1 26.5
14:10 1017 30.03 846 24.98 12.9 55.2 32 -3.3 26.1
14:15 1017 30.03 846 24.98 12.6 54.7 31 -3.9 24.9
14:20 1017 30.03 846 24.98 12.4 54.3 32 -4 24.9
14:25 1017 30.03 846 24.98 12.3 54.2 31 -4.4 24.2
14:30 1017 30.03 846 24.98 12.3 54.1 30 -4.7 23.6
14:35 1016 30 846 24.98 12.4 54.3 31 -4.2 24.4
14:40 1016 30 846 24.98 12.2 54 31 -4.5 23.9
14:45 1016 30 846 24.98 12.3 54.2 30 -4.7 23.5
14:50 1016 30 845 24.95 11.8 53.3 31 -4.6 23.8
14:55 1016 30 845 24.95 11.5 52.7 31 -4.9 23.2
15:00 1016 30 845 24.95 11.7 53.1 32 -4.2 24.4
15:05 1016 30 845 24.95 12.2 54 31 -4.6 23.8
15:10 1016 30 845 24.95 12.5 54.5 31 -4.2 24.4
15:15 1016 30 845 24.95 12.7 54.8 30 -4.3 24.2
15:20 1016 30 845 24.95 12.7 54.8 31 -4.1 24.6
15:25 1016 30 845 24.95 13 55.5 30 -4 24.9
15:30 1016 30 845 24.95 12.5 54.5 32 -3.8 25.2
15:35 1015 29.97 845 24.95 12.2 53.9 31 -4.3 24.3
15:40 1015 29.97 845 24.95 12 53.5 32 -4.1 24.6
15:45 1015 29.97 844 24.92 12.1 53.7 32 -3.9 25
15:50 1015 29.97 844 24.92 11.9 53.5 34 -3.5 25.6
15:55 1015 29.97 844 24.92 12.1 53.8 34 -3.3 26.1
16:00 1015 29.97 844 24.92 12.2 53.9 33 -3.5 25.6
16:05 1015 29.97 844 24.92 12.3 54.1 31 -4.5 23.9
16:10 1015 29.97 844 24.92 12.7 54.8 31 -3.9 24.9
16:15 1015 29.97 844 24.92 12.8 55 31 -4.1 24.7
16:20 1015 29.97 844 24.92 12.5 54.5 30 -4.8 23.4
16:25 1015 29.97 844 24.92 12.5 54.4 28 -5.4 22.3
16:30 1014 29.94 844 24.92 12.5 54.5 26 -6.2 20.8
16:35 1015 29.97 844 24.92 12.4 54.3 27 -5.9 21.4
16:40 1014 29.94 844 24.92 12.5 54.6 28 -5.4 22.2
16:45 1014 29.94 844 24.92 12 53.6 30 -4.9 23.2
16:50 1014 29.94 844 24.92 12.1 53.7 30 -5.1 22.8
16:55 1014 29.94 844 24.92 12.6 54.6 28 -5.4 22.2
17:00 1014 29.94 843 24.89 12.3 54.2 28 -5.4 22.3
17:05 1014 29.94 843 24.89 12 53.5 29 -5.4 22.3
17:10 1014 29.94 843 24.89 11.5 52.7 30 -5.4 22.3
17:15 1014 29.94 843 24.89 11.3 52.4 31 -5 23
17:20 1014 29.94 843 24.89 11.3 52.3 33 -4.5 23.9
17:25 1014 29.94 843 24.89 11.1 51.9 31 -5.2 22.6
17:30 1014 29.94 843 24.89 11.2 52.2 31 -5.4 22.2
17:35 1014 29.94 843 24.89 11.3 52.3 31 -5.2 22.6
17:40 1014 29.94 843 24.89 11.1 52 32 -4.9 23.1
17:45 1014 29.94 843 24.89 11 51.8 33 -4.5 24
17:50 1014 29.94 843 24.89 10.2 50.3 36 -4.2 24.5
17:55 1014 29.94 843 24.89 10 49.9 37 -3.9 24.9
18:00 1014 29.94 843 24.89 9.9 49.9 37 -3.9 25
18:05 1014 29.94 843 24.89 9.9 49.7 38 -3.8 25.1
18:10 1014 29.94 843 24.89 9.8 49.6 35 -4.8 23.4
18:15 1014 29.94 843 24.89 9.9 49.7 36 -4.5 24
18:20 1014 29.94 843 24.89 9.5 49.1 36 -4.9 23.1
18:25 1014 29.94 843 24.89 9.4 48.8 37 -4.4 24
18:30 1014 29.94 843 24.89 9.2 48.5 38 -4.4 24.1
18:35 1014 29.94 844 24.92 9 48.3 39 -4.3 24.3
18:40 1015 29.97 844 24.92 8.9 48 45 -2.2 28
18:45 1015 29.97 844 24.92 8.3 47 49 -1.7 28.9
18:50 1015 29.97 844 24.92 7.7 45.9 53 -1.2 29.9
18:55 1015 29.97 844 24.92 7.2 45 55 -1.2 29.9
19:00 1015 29.97 844 24.92 7.1 44.7 57 -1 30.3
19:05 1015 29.97 844 24.92 6.9 44.3 59 -0.7 30.8
19:10 1015 29.97 844 24.92 6.7 44 60 -0.6 30.9
19:15 1015 29.97 844 24.92 6.5 43.6 60 -0.7 30.7
19:20 1015 29.97 844 24.92 6.4 43.4 61 -0.6 30.9
19:25 1015 29.97 844 24.92 6.3 43.3 61 -0.5 31
19:30 1015 29.97 844 24.92 6.2 43.1 62 -0.4 31.2
19:35 1015 29.97 844 24.92 6 42.8 64 -0.4 31.3
19:40 1015 29.97 844 24.92 5.8 42.5 64 -0.4 31.2
19:45 1015 29.97 844 24.92 5.6 42.2 65 -0.4 31.3
19:50 1015 29.97 844 24.92 5.5 41.9 66 -0.4 31.3
19:55 1015 29.97 845 24.95 5.4 41.8 66 -0.3 31.4
20:00 1015 29.97 845 24.95 5.3 41.6 67 -0.2 31.6
20:05 1016 30 845 24.95 4.9 40.8 71 0.1 32.1
20:10 1016 30 845 24.95 4.5 40.1 72 -0 31.9
20:15 1016 30 845 24.95 4.5 40.2 72 -0.1 31.9
20:20 1016 30 845 24.95 4.8 40.7 70 -0.2 31.7
20:25 1016 30 845 24.95 5.2 41.3 67 -0.4 31.3
20:30 1016 30 845 24.95 5.2 41.4 66 -0.5 31.1
20:35 1016 30 845 24.95 5.2 41.3 66 -0.6 30.9
20:40 1016 30 845 24.95 5 41.1 67 -0.7 30.8
20:45 1016 30 845 24.95 4.7 40.4 67 -0.8 30.5
20:50 1016 30 845 24.95 4.6 40.2 67 -1.1 30
20:55 1016 30 845 24.95 4.7 40.4 65 -1.4 29.6
21:00 1016 30 845 24.95 4.7 40.4 64 -1.5 29.3
21:05 1016 30 845 24.95 4.6 40.3 64 -1.6 29.1
21:10 1016 30 845 24.95 4.5 40.2 64 -1.7 28.9
21:15 1016 30 845 24.95 4.6 40.2 63 -1.8 28.8
21:20 1016 30 845 24.95 4.6 40.2 63 -1.8 28.7
21:25 1016 30 845 24.95 4.6 40.3 63 -1.9 28.6
21:30 1016 30 846 24.98 4.6 40.2 61 -2.2 28
21:35 1016 30 846 24.98 4.5 40.2 60 -2.5 27.4
21:40 1016 30 846 24.98 4.6 40.3 60 -2.5 27.5
21:45 1016 30 846 24.98 4.6 40.3 61 -2.3 27.8
21:50 1016 30 846 24.98 4.4 39.8 62 -2.3 27.8
21:55 1017 30.03 846 24.98 4.2 39.6 61 -2.5 27.4
22:00 1017 30.03 846 24.98 4 39.3 61 -2.8 26.9
22:05 1017 30.03 846 24.98 4 39.3 60 -3.1 26.4
22:10 1017 30.03 846 24.98 4 39.2 59 -3.2 26.3
22:15 1017 30.03 846 24.98 4 39.1 60 -3.2 26.3
22:20 1017 30.03 846 24.98 4 39.2 59 -3.2 26.2
22:25 1017 30.03 846 24.98 4 39.2 58 -3.4 25.9
22:30 1017 30.03 846 24.98 3.9 39.1 59 -3.3 26
22:35 1017 30.03 846 24.98 3.8 38.8 60 -3.3 26.1
22:40 1017 30.03 846 24.98 3.5 38.3 62 -3.1 26.3
22:45 1017 30.03 846 24.98 3.4 38.1 62 -3.2 26.2
22:50 1017 30.03 846 24.98 3.2 37.7 63 -3.3 26.1
22:55 1017 30.03 846 24.98 3 37.5 63 -3.3 26.1
23:00 1017 30.03 846 24.98 2.9 37.2 62 -3.7 25.4
23:05 1017 30.03 846 24.98 3 37.3 62 -3.6 25.4
23:10 1017 30.03 846 24.98 3.1 37.6 60 -3.8 25.1
23:15 1017 30.03 846 24.98 3.2 37.8 57 -4.4 24.2
23:20 1017 30.03 846 24.98 3.3 37.9 57 -4.5 23.9
23:25 1017 30.03 846 24.98 3.4 38 56 -4.6 23.7
23:30 1017 30.03 846 24.98 3.3 38 56 -4.6 23.7
23:35 1017 30.03 846 24.98 3.2 37.8 56 -4.7 23.5
23:40 1017 30.03 846 24.98 3 37.4 57 -4.8 23.4
23:45 1017 30.03 846 24.98 2.8 37.1 55 -5.2 22.6
23:50 1017 30.03 846 24.98 2.8 37 54 -5.6 21.9
23:55 1017 30.03 847 25.01 2.9 37.1 54 -5.7 21.8
24:00 1017 30.03 847 25.01 2.8 37 54 -5.5 22.1